sensor_id;sensor_type;location;lat;lon;timestamp;P1;durP1;ratioP1;P2;durP2;ratioP2
29380;SDS011;16364;52.490;13.326;2023-07-20T00:01:12;8.93;;;4.90;;
29380;SDS011;16364;52.490;13.326;2023-07-20T00:03:38;3.83;;;3.63;;
29380;SDS011;16364;52.490;13.326;2023-07-20T00:06:03;4.53;;;4.13;;
29380;SDS011;16364;52.490;13.326;2023-07-20T00:08:29;7.27;;;5.03;;
29380;SDS011;16364;52.490;13.326;2023-07-20T00:10:54;4.83;;;4.43;;
29380;SDS011;16364;52.490;13.326;2023-07-20T00:13:20;7.03;;;4.70;;
29380;SDS011;16364;52.490;13.326;2023-07-20T00:15:46;5.23;;;4.83;;
29380;SDS011;16364;52.490;13.326;2023-07-20T00:18:11;5.07;;;4.70;;
29380;SDS011;16364;52.490;13.326;2023-07-20T00:20:36;5.40;;;5.00;;
29380;SDS011;16364;52.490;13.326;2023-07-20T00:23:01;5.27;;;4.80;;
29380;SDS011;16364;52.490;13.326;2023-07-20T00:25:27;5.73;;;4.90;;
29380;SDS011;16364;52.490;13.326;2023-07-20T00:27:52;5.60;;;5.00;;
29380;SDS011;16364;52.490;13.326;2023-07-20T00:30:18;5.63;;;5.13;;
29380;SDS011;16364;52.490;13.326;2023-07-20T00:32:43;5.77;;;5.40;;
29380;SDS011;16364;52.490;13.326;2023-07-20T00:35:09;7.90;;;6.63;;
29380;SDS011;16364;52.490;13.326;2023-07-20T00:37:34;6.67;;;6.17;;
29380;SDS011;16364;52.490;13.326;2023-07-20T00:39:59;5.80;;;5.30;;
29380;SDS011;16364;52.490;13.326;2023-07-20T00:42:25;5.73;;;5.23;;
29380;SDS011;16364;52.490;13.326;2023-07-20T00:44:50;5.87;;;5.47;;
29380;SDS011;16364;52.490;13.326;2023-07-20T00:47:15;5.57;;;5.17;;
29380;SDS011;16364;52.490;13.326;2023-07-20T00:49:40;6.20;;;5.80;;
29380;SDS011;16364;52.490;13.326;2023-07-20T00:52:06;6.53;;;6.03;;
29380;SDS011;16364;52.490;13.326;2023-07-20T00:54:32;6.20;;;5.80;;
29380;SDS011;16364;52.490;13.326;2023-07-20T00:56:57;6.67;;;6.10;;
29380;SDS011;16364;52.490;13.326;2023-07-20T00:59:23;6.40;;;6.00;;
29380;SDS011;16364;52.490;13.326;2023-07-20T01:01:49;5.20;;;4.80;;
29380;SDS011;16364;52.490;13.326;2023-07-20T01:04:14;6.20;;;5.70;;
29380;SDS011;16364;52.490;13.326;2023-07-20T01:06:41;7.70;;;7.10;;
29380;SDS011;16364;52.490;13.326;2023-07-20T01:09:13;7.03;;;6.53;;
29380;SDS011;16364;52.490;13.326;2023-07-20T01:11:43;7.70;;;7.10;;
29380;SDS011;16364;52.490;13.326;2023-07-20T01:14:08;7.30;;;6.73;;
29380;SDS011;16364;52.490;13.326;2023-07-20T01:16:34;7.40;;;6.80;;
29380;SDS011;16364;52.490;13.326;2023-07-20T01:18:59;7.70;;;7.10;;
29380;SDS011;16364;52.490;13.326;2023-07-20T01:21:26;7.70;;;7.20;;
29380;SDS011;16364;52.490;13.326;2023-07-20T01:31:30;8.07;;;7.20;;
29380;SDS011;16364;52.490;13.326;2023-07-20T01:33:57;7.93;;;7.37;;
29380;SDS011;16364;52.490;13.326;2023-07-20T01:36:24;9.33;;;8.33;;
29380;SDS011;16364;52.490;13.326;2023-07-20T01:38:52;8.67;;;8.03;;
29380;SDS011;16364;52.490;13.326;2023-07-20T01:41:18;8.73;;;8.03;;
29380;SDS011;16364;52.490;13.326;2023-07-20T01:43:43;8.10;;;7.40;;
29380;SDS011;16364;52.490;13.326;2023-07-20T01:46:09;9.20;;;8.50;;
29380;SDS011;16364;52.490;13.326;2023-07-20T01:48:34;10.27;;;8.00;;
29380;SDS011;16364;52.490;13.326;2023-07-20T01:50:59;9.90;;;8.43;;
29380;SDS011;16364;52.490;13.326;2023-07-20T01:53:25;9.80;;;7.20;;
29380;SDS011;16364;52.490;13.326;2023-07-20T01:55:52;8.60;;;7.90;;
29380;SDS011;16364;52.490;13.326;2023-07-20T01:58:17;9.10;;;8.30;;
29380;SDS011;16364;52.490;13.326;2023-07-20T02:00:42;8.77;;;8.13;;
29380;SDS011;16364;52.490;13.326;2023-07-20T02:03:08;9.07;;;8.40;;
29380;SDS011;16364;52.490;13.326;2023-07-20T02:05:33;8.20;;;7.40;;
29380;SDS011;16364;52.490;13.326;2023-07-20T02:07:58;8.57;;;7.77;;
29380;SDS011;16364;52.490;13.326;2023-07-20T02:10:23;8.03;;;7.27;;
29380;SDS011;16364;52.490;13.326;2023-07-20T02:12:49;9.33;;;8.50;;
29380;SDS011;16364;52.490;13.326;2023-07-20T02:15:14;9.00;;;8.20;;
29380;SDS011;16364;52.490;13.326;2023-07-20T02:17:41;7.70;;;7.10;;
29380;SDS011;16364;52.490;13.326;2023-07-20T02:20:07;7.87;;;7.20;;
29380;SDS011;16364;52.490;13.326;2023-07-20T02:22:34;8.90;;;8.17;;
29380;SDS011;16364;52.490;13.326;2023-07-20T02:24:59;6.90;;;6.30;;
29380;SDS011;16364;52.490;13.326;2023-07-20T02:27:24;7.67;;;6.90;;
29380;SDS011;16364;52.490;13.326;2023-07-20T02:29:49;7.20;;;6.60;;
29380;SDS011;16364;52.490;13.326;2023-07-20T02:32:15;7.80;;;7.30;;
29380;SDS011;16364;52.490;13.326;2023-07-20T02:34:40;7.30;;;6.80;;
29380;SDS011;16364;52.490;13.326;2023-07-20T02:37:06;7.47;;;6.80;;
29380;SDS011;16364;52.490;13.326;2023-07-20T02:39:31;7.57;;;7.07;;
29380;SDS011;16364;52.490;13.326;2023-07-20T02:41:56;7.43;;;6.83;;
29380;SDS011;16364;52.490;13.326;2023-07-20T02:44:21;9.57;;;8.73;;
29380;SDS011;16364;52.490;13.326;2023-07-20T02:46:47;8.20;;;7.50;;
29380;SDS011;16364;52.490;13.326;2023-07-20T02:49:14;7.13;;;6.63;;
29380;SDS011;16364;52.490;13.326;2023-07-20T02:51:40;9.00;;;8.30;;
29380;SDS011;16364;52.490;13.326;2023-07-20T02:54:05;8.70;;;7.93;;
29380;SDS011;16364;52.490;13.326;2023-07-20T02:56:30;9.10;;;8.40;;
29380;SDS011;16364;52.490;13.326;2023-07-20T02:58:55;10.40;;;9.60;;
29380;SDS011;16364;52.490;13.326;2023-07-20T03:01:22;10.47;;;9.33;;
29380;SDS011;16364;52.490;13.326;2023-07-20T03:03:48;11.67;;;10.63;;
29380;SDS011;16364;52.490;13.326;2023-07-20T03:06:13;10.97;;;9.97;;
29380;SDS011;16364;52.490;13.326;2023-07-20T03:08:39;10.53;;;9.63;;
29380;SDS011;16364;52.490;13.326;2023-07-20T03:11:06;12.80;;;11.70;;
29380;SDS011;16364;52.490;13.326;2023-07-20T03:13:31;11.20;;;10.27;;
29380;SDS011;16364;52.490;13.326;2023-07-20T03:15:56;13.43;;;12.17;;
29380;SDS011;16364;52.490;13.326;2023-07-20T03:18:22;12.77;;;11.47;;
29380;SDS011;16364;52.490;13.326;2023-07-20T03:20:47;12.10;;;11.10;;
29380;SDS011;16364;52.490;13.326;2023-07-20T03:23:13;12.80;;;11.53;;
29380;SDS011;16364;52.490;13.326;2023-07-20T03:25:39;12.40;;;11.20;;
29380;SDS011;16364;52.490;13.326;2023-07-20T03:28:04;11.80;;;10.70;;
29380;SDS011;16364;52.490;13.326;2023-07-20T03:30:29;14.00;;;12.53;;
29380;SDS011;16364;52.490;13.326;2023-07-20T03:32:55;14.80;;;11.90;;
29380;SDS011;16364;52.490;13.326;2023-07-20T03:35:20;11.27;;;10.27;;
29380;SDS011;16364;52.490;13.326;2023-07-20T03:37:45;12.90;;;11.70;;
29380;SDS011;16364;52.490;13.326;2023-07-20T03:40:10;12.40;;;11.33;;
29380;SDS011;16364;52.490;13.326;2023-07-20T03:42:37;12.57;;;11.40;;
29380;SDS011;16364;52.490;13.326;2023-07-20T03:45:03;11.77;;;10.73;;
29380;SDS011;16364;52.490;13.326;2023-07-20T03:47:29;12.23;;;11.03;;
29380;SDS011;16364;52.490;13.326;2023-07-20T03:49:54;14.13;;;12.63;;
29380;SDS011;16364;52.490;13.326;2023-07-20T03:52:20;12.40;;;11.40;;
29380;SDS011;16364;52.490;13.326;2023-07-20T03:54:45;12.87;;;11.77;;
29380;SDS011;16364;52.490;13.326;2023-07-20T03:57:10;13.20;;;11.90;;
29380;SDS011;16364;52.490;13.326;2023-07-20T03:59:37;13.23;;;11.90;;
29380;SDS011;16364;52.490;13.326;2023-07-20T04:02:02;13.40;;;12.03;;
29380;SDS011;16364;52.490;13.326;2023-07-20T04:04:27;14.57;;;13.27;;
29380;SDS011;16364;52.490;13.326;2023-07-20T04:06:53;15.20;;;13.60;;
29380;SDS011;16364;52.490;13.326;2023-07-20T04:09:18;13.73;;;12.43;;
29380;SDS011;16364;52.490;13.326;2023-07-20T04:11:43;14.67;;;13.13;;
29380;SDS011;16364;52.490;13.326;2023-07-20T04:14:08;14.33;;;12.93;;
29380;SDS011;16364;52.490;13.326;2023-07-20T04:16:34;13.87;;;12.47;;
29380;SDS011;16364;52.490;13.326;2023-07-20T04:18:59;11.87;;;10.70;;
29380;SDS011;16364;52.490;13.326;2023-07-20T04:21:26;12.23;;;11.10;;
29380;SDS011;16364;52.490;13.326;2023-07-20T04:23:51;12.90;;;11.70;;
29380;SDS011;16364;52.490;13.326;2023-07-20T04:26:16;11.20;;;10.20;;
29380;SDS011;16364;52.490;13.326;2023-07-20T04:28:42;12.40;;;11.07;;
29380;SDS011;16364;52.490;13.326;2023-07-20T04:31:11;12.63;;;11.43;;
29380;SDS011;16364;52.490;13.326;2023-07-20T04:33:37;26.23;;;12.23;;
29380;SDS011;16364;52.490;13.326;2023-07-20T04:36:02;11.90;;;10.87;;
29380;SDS011;16364;52.490;13.326;2023-07-20T04:38:28;14.00;;;12.70;;
29380;SDS011;16364;52.490;13.326;2023-07-20T04:40:53;13.00;;;11.90;;
29380;SDS011;16364;52.490;13.326;2023-07-20T04:43:18;13.30;;;12.20;;
29380;SDS011;16364;52.490;13.326;2023-07-20T04:45:43;12.63;;;11.63;;
29380;SDS011;16364;52.490;13.326;2023-07-20T04:48:09;12.63;;;11.40;;
29380;SDS011;16364;52.490;13.326;2023-07-20T04:50:36;11.10;;;10.10;;
29380;SDS011;16364;52.490;13.326;2023-07-20T04:53:01;9.97;;;9.17;;
29380;SDS011;16364;52.490;13.326;2023-07-20T04:55:27;10.47;;;9.60;;
29380;SDS011;16364;52.490;13.326;2023-07-20T04:57:52;12.77;;;11.57;;
29380;SDS011;16364;52.490;13.326;2023-07-20T05:00:18;13.20;;;11.90;;
29380;SDS011;16364;52.490;13.326;2023-07-20T05:02:44;12.67;;;11.60;;
29380;SDS011;16364;52.490;13.326;2023-07-20T05:05:09;10.50;;;9.70;;
29380;SDS011;16364;52.490;13.326;2023-07-20T05:07:34;10.07;;;9.27;;
29380;SDS011;16364;52.490;13.326;2023-07-20T05:10:00;9.90;;;9.10;;
29380;SDS011;16364;52.490;13.326;2023-07-20T05:12:25;10.10;;;9.40;;
29380;SDS011;16364;52.490;13.326;2023-07-20T05:14:51;9.17;;;8.40;;
29380;SDS011;16364;52.490;13.326;2023-07-20T05:17:16;9.97;;;9.10;;
29380;SDS011;16364;52.490;13.326;2023-07-20T05:19:41;10.93;;;10.03;;
29380;SDS011;16364;52.490;13.326;2023-07-20T05:22:06;9.60;;;8.67;;
29380;SDS011;16364;52.490;13.326;2023-07-20T05:24:31;8.83;;;8.13;;
29380;SDS011;16364;52.490;13.326;2023-07-20T05:26:57;10.00;;;9.00;;
29380;SDS011;16364;52.490;13.326;2023-07-20T05:29:23;9.63;;;8.80;;
29380;SDS011;16364;52.490;13.326;2023-07-20T05:31:48;9.00;;;8.30;;
29380;SDS011;16364;52.490;13.326;2023-07-20T05:34:14;8.70;;;7.90;;
29380;SDS011;16364;52.490;13.326;2023-07-20T05:36:39;11.73;;;8.77;;
29380;SDS011;16364;52.490;13.326;2023-07-20T05:39:04;8.73;;;7.37;;
29380;SDS011;16364;52.490;13.326;2023-07-20T05:41:29;7.93;;;7.23;;
29380;SDS011;16364;52.490;13.326;2023-07-20T05:43:55;10.77;;;9.47;;
29380;SDS011;16364;52.490;13.326;2023-07-20T05:46:20;10.47;;;9.43;;
29380;SDS011;16364;52.490;13.326;2023-07-20T05:48:45;11.63;;;10.63;;
29380;SDS011;16364;52.490;13.326;2023-07-20T05:51:11;9.60;;;8.80;;
29380;SDS011;16364;52.490;13.326;2023-07-20T05:53:36;12.43;;;9.90;;
29380;SDS011;16364;52.490;13.326;2023-07-20T05:56:01;9.83;;;8.73;;
29380;SDS011;16364;52.490;13.326;2023-07-20T05:58:27;10.07;;;9.17;;
29380;SDS011;16364;52.490;13.326;2023-07-20T06:00:53;9.70;;;8.70;;
29380;SDS011;16364;52.490;13.326;2023-07-20T06:03:18;8.50;;;7.90;;
29380;SDS011;16364;52.490;13.326;2023-07-20T06:05:43;9.20;;;8.40;;
29380;SDS011;16364;52.490;13.326;2023-07-20T06:08:09;7.60;;;6.90;;
29380;SDS011;16364;52.490;13.326;2023-07-20T06:10:34;8.87;;;8.17;;
29380;SDS011;16364;52.490;13.326;2023-07-20T06:12:59;7.80;;;7.03;;
29380;SDS011;16364;52.490;13.326;2023-07-20T06:15:25;9.07;;;8.37;;
29380;SDS011;16364;52.490;13.326;2023-07-20T06:17:51;8.43;;;7.73;;
29380;SDS011;16364;52.490;13.326;2023-07-20T06:20:16;8.17;;;7.53;;
29380;SDS011;16364;52.490;13.326;2023-07-20T06:22:41;7.87;;;6.97;;
29380;SDS011;16364;52.490;13.326;2023-07-20T06:25:07;7.27;;;6.70;;
29380;SDS011;16364;52.490;13.326;2023-07-20T06:27:32;12.63;;;8.10;;
29380;SDS011;16364;52.490;13.326;2023-07-20T06:29:57;7.10;;;6.50;;
29380;SDS011;16364;52.490;13.326;2023-07-20T06:32:23;5.90;;;5.33;;
29380;SDS011;16364;52.490;13.326;2023-07-20T06:34:48;10.93;;;6.83;;
29380;SDS011;16364;52.490;13.326;2023-07-20T06:37:13;5.83;;;5.33;;
29380;SDS011;16364;52.490;13.326;2023-07-20T06:39:38;5.93;;;5.53;;
29380;SDS011;16364;52.490;13.326;2023-07-20T06:42:04;4.87;;;4.47;;
29380;SDS011;16364;52.490;13.326;2023-07-20T06:44:29;4.73;;;4.33;;
29380;SDS011;16364;52.490;13.326;2023-07-20T06:46:54;4.17;;;3.87;;
29380;SDS011;16364;52.490;13.326;2023-07-20T06:49:26;3.60;;;3.40;;
29380;SDS011;16364;52.490;13.326;2023-07-20T06:51:51;3.17;;;2.97;;
29380;SDS011;16364;52.490;13.326;2023-07-20T06:54:17;3.10;;;2.90;;
29380;SDS011;16364;52.490;13.326;2023-07-20T06:56:42;5.70;;;3.00;;
29380;SDS011;16364;52.490;13.326;2023-07-20T06:59:07;2.03;;;1.93;;
29380;SDS011;16364;52.490;13.326;2023-07-20T07:01:33;3.97;;;2.60;;
29380;SDS011;16364;52.490;13.326;2023-07-20T07:03:58;3.80;;;2.43;;
29380;SDS011;16364;52.490;13.326;2023-07-20T07:06:23;4.83;;;2.20;;
29380;SDS011;16364;52.490;13.326;2023-07-20T07:08:49;4.20;;;2.70;;
29380;SDS011;16364;52.490;13.326;2023-07-20T07:11:14;2.47;;;1.90;;
29380;SDS011;16364;52.490;13.326;2023-07-20T07:13:39;2.27;;;2.00;;
29380;SDS011;16364;52.490;13.326;2023-07-20T07:16:04;3.27;;;2.23;;
29380;SDS011;16364;52.490;13.326;2023-07-20T07:18:29;3.03;;;2.20;;
29380;SDS011;16364;52.490;13.326;2023-07-20T07:20:55;2.50;;;2.20;;
29380;SDS011;16364;52.490;13.326;2023-07-20T07:23:20;2.30;;;1.97;;
29380;SDS011;16364;52.490;13.326;2023-07-20T07:25:45;3.23;;;2.30;;
29380;SDS011;16364;52.490;13.326;2023-07-20T07:28:11;2.13;;;2.03;;
29380;SDS011;16364;52.490;13.326;2023-07-20T07:30:36;1.97;;;1.60;;
29380;SDS011;16364;52.490;13.326;2023-07-20T07:33:01;1.70;;;1.60;;
29380;SDS011;16364;52.490;13.326;2023-07-20T07:35:26;2.40;;;1.70;;
29380;SDS011;16364;52.490;13.326;2023-07-20T07:37:52;2.10;;;1.53;;
29380;SDS011;16364;52.490;13.326;2023-07-20T07:40:17;1.60;;;1.50;;
29380;SDS011;16364;52.490;13.326;2023-07-20T07:42:43;1.63;;;1.53;;
29380;SDS011;16364;52.490;13.326;2023-07-20T07:45:09;1.50;;;1.30;;
29380;SDS011;16364;52.490;13.326;2023-07-20T07:47:34;1.73;;;1.60;;
29380;SDS011;16364;52.490;13.326;2023-07-20T07:49:59;1.60;;;1.40;;
29380;SDS011;16364;52.490;13.326;2023-07-20T07:52:25;1.40;;;1.30;;
29380;SDS011;16364;52.490;13.326;2023-07-20T07:54:50;3.63;;;2.57;;
29380;SDS011;16364;52.490;13.326;2023-07-20T07:57:15;1.40;;;1.30;;
29380;SDS011;16364;52.490;13.326;2023-07-20T07:59:40;2.43;;;1.47;;
29380;SDS011;16364;52.490;13.326;2023-07-20T08:02:06;2.80;;;1.40;;
29380;SDS011;16364;52.490;13.326;2023-07-20T08:04:31;1.50;;;1.40;;
29380;SDS011;16364;52.490;13.326;2023-07-20T08:06:56;1.40;;;1.20;;
29380;SDS011;16364;52.490;13.326;2023-07-20T08:09:22;1.80;;;1.30;;
29380;SDS011;16364;52.490;13.326;2023-07-20T08:11:47;1.30;;;1.20;;
29380;SDS011;16364;52.490;13.326;2023-07-20T08:14:13;2.00;;;1.07;;
29380;SDS011;16364;52.490;13.326;2023-07-20T08:16:38;1.10;;;1.00;;
29380;SDS011;16364;52.490;13.326;2023-07-20T08:19:03;1.00;;;1.00;;
29380;SDS011;16364;52.490;13.326;2023-07-20T08:21:29;1.20;;;1.10;;
29380;SDS011;16364;52.490;13.326;2023-07-20T08:23:54;2.70;;;1.10;;
29380;SDS011;16364;52.490;13.326;2023-07-20T08:26:19;2.20;;;1.00;;
29380;SDS011;16364;52.490;13.326;2023-07-20T08:28:47;1.83;;;1.00;;
29380;SDS011;16364;52.490;13.326;2023-07-20T08:31:13;1.83;;;1.00;;
29380;SDS011;16364;52.490;13.326;2023-07-20T08:33:38;0.97;;;0.87;;
29380;SDS011;16364;52.490;13.326;2023-07-20T08:36:03;1.50;;;0.93;;
29380;SDS011;16364;52.490;13.326;2023-07-20T08:38:31;1.20;;;0.90;;
29380;SDS011;16364;52.490;13.326;2023-07-20T08:40:56;1.93;;;1.10;;
29380;SDS011;16364;52.490;13.326;2023-07-20T08:43:22;1.13;;;1.03;;
29380;SDS011;16364;52.490;13.326;2023-07-20T08:45:48;1.73;;;1.10;;
29380;SDS011;16364;52.490;13.326;2023-07-20T08:48:14;1.13;;;1.00;;
29380;SDS011;16364;52.490;13.326;2023-07-20T08:50:40;1.13;;;1.00;;
29380;SDS011;16364;52.490;13.326;2023-07-20T08:53:06;1.10;;;1.00;;
29380;SDS011;16364;52.490;13.326;2023-07-20T08:55:32;0.80;;;0.80;;
29380;SDS011;16364;52.490;13.326;2023-07-20T08:57:58;1.77;;;0.90;;
29380;SDS011;16364;52.490;13.326;2023-07-20T09:00:24;1.63;;;0.93;;
29380;SDS011;16364;52.490;13.326;2023-07-20T09:02:49;0.80;;;0.80;;
29380;SDS011;16364;52.490;13.326;2023-07-20T09:05:15;1.27;;;1.00;;
29380;SDS011;16364;52.490;13.326;2023-07-20T09:07:41;2.13;;;1.00;;
29380;SDS011;16364;52.490;13.326;2023-07-20T09:10:06;1.10;;;0.90;;
29380;SDS011;16364;52.490;13.326;2023-07-20T09:12:39;0.80;;;0.80;;
29380;SDS011;16364;52.490;13.326;2023-07-20T09:15:05;1.07;;;0.80;;
29380;SDS011;16364;52.490;13.326;2023-07-20T09:17:30;0.80;;;0.73;;
29380;SDS011;16364;52.490;13.326;2023-07-20T09:19:56;0.80;;;0.80;;
29380;SDS011;16364;52.490;13.326;2023-07-20T09:22:21;0.93;;;0.90;;
29380;SDS011;16364;52.490;13.326;2023-07-20T09:24:46;3.13;;;0.80;;
29380;SDS011;16364;52.490;13.326;2023-07-20T09:27:12;0.80;;;0.80;;
29380;SDS011;16364;52.490;13.326;2023-07-20T09:29:50;3.10;;;0.90;;
29380;SDS011;16364;52.490;13.326;2023-07-20T09:32:19;0.80;;;0.80;;
29380;SDS011;16364;52.490;13.326;2023-07-20T09:34:45;0.73;;;0.73;;
29380;SDS011;16364;52.490;13.326;2023-07-20T09:37:11;1.33;;;0.90;;
29380;SDS011;16364;52.490;13.326;2023-07-20T09:39:43;0.77;;;0.67;;
29380;SDS011;16364;52.490;13.326;2023-07-20T09:42:09;1.03;;;0.93;;
29380;SDS011;16364;52.490;13.326;2023-07-20T09:44:35;1.03;;;0.80;;
29380;SDS011;16364;52.490;13.326;2023-07-20T09:47:02;1.00;;;0.80;;
29380;SDS011;16364;52.490;13.326;2023-07-20T09:49:28;1.50;;;0.80;;
29380;SDS011;16364;52.490;13.326;2023-07-20T09:51:53;0.83;;;0.83;;
29380;SDS011;16364;52.490;13.326;2023-07-20T09:54:18;2.70;;;0.90;;
29380;SDS011;16364;52.490;13.326;2023-07-20T09:56:46;1.27;;;0.80;;
29380;SDS011;16364;52.490;13.326;2023-07-20T09:59:12;2.20;;;1.10;;
29380;SDS011;16364;52.490;13.326;2023-07-20T10:01:38;2.00;;;0.83;;
29380;SDS011;16364;52.490;13.326;2023-07-20T10:04:07;0.90;;;0.80;;
29380;SDS011;16364;52.490;13.326;2023-07-20T10:06:33;1.20;;;0.90;;
29380;SDS011;16364;52.490;13.326;2023-07-20T10:09:02;0.90;;;0.90;;
29380;SDS011;16364;52.490;13.326;2023-07-20T10:11:31;1.20;;;1.00;;
29380;SDS011;16364;52.490;13.326;2023-07-20T10:13:58;1.30;;;1.20;;
29380;SDS011;16364;52.490;13.326;2023-07-20T10:16:36;1.83;;;1.73;;
29380;SDS011;16364;52.490;13.326;2023-07-20T10:21:50;1.03;;;1.00;;
29380;SDS011;16364;52.490;13.326;2023-07-20T10:24:16;1.20;;;1.10;;
29380;SDS011;16364;52.490;13.326;2023-07-20T10:26:42;1.20;;;1.10;;
29380;SDS011;16364;52.490;13.326;2023-07-20T10:29:08;1.10;;;0.90;;
29380;SDS011;16364;52.490;13.326;2023-07-20T10:31:33;1.37;;;1.20;;
29380;SDS011;16364;52.490;13.326;2023-07-20T10:33:59;1.40;;;1.30;;
29380;SDS011;16364;52.490;13.326;2023-07-20T10:36:25;1.40;;;1.30;;
29380;SDS011;16364;52.490;13.326;2023-07-20T10:38:57;1.10;;;1.00;;
29380;SDS011;16364;52.490;13.326;2023-07-20T10:43:49;1.27;;;1.00;;
29380;SDS011;16364;52.490;13.326;2023-07-20T10:46:19;1.23;;;1.13;;
29380;SDS011;16364;52.490;13.326;2023-07-20T10:49:02;1.30;;;1.20;;
29380;SDS011;16364;52.490;13.326;2023-07-20T10:51:27;1.47;;;1.37;;
29380;SDS011;16364;52.490;13.326;2023-07-20T10:53:54;4.30;;;1.30;;
29380;SDS011;16364;52.490;13.326;2023-07-20T10:56:22;1.40;;;1.30;;
29380;SDS011;16364;52.490;13.326;2023-07-20T10:58:48;1.37;;;1.27;;
29380;SDS011;16364;52.490;13.326;2023-07-20T11:01:14;2.20;;;1.27;;
29380;SDS011;16364;52.490;13.326;2023-07-20T11:03:39;1.23;;;1.17;;
29380;SDS011;16364;52.490;13.326;2023-07-20T11:08:49;1.60;;;1.20;;
29380;SDS011;16364;52.490;13.326;2023-07-20T11:16:47;1.73;;;1.30;;
29380;SDS011;16364;52.490;13.326;2023-07-20T11:19:16;1.37;;;1.13;;
29380;SDS011;16364;52.490;13.326;2023-07-20T11:21:43;1.40;;;1.00;;
29380;SDS011;16364;52.490;13.326;2023-07-20T11:24:08;1.97;;;1.17;;
29380;SDS011;16364;52.490;13.326;2023-07-20T11:26:54;1.43;;;1.10;;
29380;SDS011;16364;52.490;13.326;2023-07-20T11:29:20;1.63;;;1.10;;
29380;SDS011;16364;52.490;13.326;2023-07-20T11:31:46;2.40;;;1.00;;
29380;SDS011;16364;52.490;13.326;2023-07-20T11:34:12;1.00;;;0.90;;
29380;SDS011;16364;52.490;13.326;2023-07-20T11:36:41;3.63;;;1.10;;
29380;SDS011;16364;52.490;13.326;2023-07-20T11:39:10;1.00;;;0.80;;
29380;SDS011;16364;52.490;13.326;2023-07-20T11:41:35;1.13;;;1.00;;
29380;SDS011;16364;52.490;13.326;2023-07-20T11:44:01;1.07;;;0.97;;
29380;SDS011;16364;52.490;13.326;2023-07-20T11:46:27;1.40;;;1.30;;
29380;SDS011;16364;52.490;13.326;2023-07-20T11:48:59;1.00;;;0.90;;
29380;SDS011;16364;52.490;13.326;2023-07-20T11:51:30;1.30;;;1.00;;
29380;SDS011;16364;52.490;13.326;2023-07-20T11:53:56;1.00;;;0.80;;
29380;SDS011;16364;52.490;13.326;2023-07-20T11:56:22;1.30;;;0.90;;
29380;SDS011;16364;52.490;13.326;2023-07-20T11:58:48;0.70;;;0.70;;
29380;SDS011;16364;52.490;13.326;2023-07-20T12:01:13;0.80;;;0.70;;
29380;SDS011;16364;52.490;13.326;2023-07-20T12:03:39;1.13;;;0.73;;
29380;SDS011;16364;52.490;13.326;2023-07-20T12:06:07;0.90;;;0.90;;
29380;SDS011;16364;52.490;13.326;2023-07-20T12:08:33;1.57;;;0.70;;
29380;SDS011;16364;52.490;13.326;2023-07-20T12:10:58;0.90;;;0.80;;
29380;SDS011;16364;52.490;13.326;2023-07-20T12:13:24;1.13;;;0.90;;
29380;SDS011;16364;52.490;13.326;2023-07-20T12:15:52;0.90;;;0.80;;
29380;SDS011;16364;52.490;13.326;2023-07-20T12:18:22;1.30;;;0.77;;
29380;SDS011;16364;52.490;13.326;2023-07-20T12:20:47;0.97;;;0.80;;
29380;SDS011;16364;52.490;13.326;2023-07-20T12:23:13;1.37;;;0.90;;
29380;SDS011;16364;52.490;13.326;2023-07-20T12:25:45;1.10;;;0.70;;
29380;SDS011;16364;52.490;13.326;2023-07-20T12:28:12;1.33;;;0.80;;
29380;SDS011;16364;52.490;13.326;2023-07-20T12:30:38;0.80;;;0.70;;
29380;SDS011;16364;52.490;13.326;2023-07-20T12:33:03;1.00;;;0.80;;
29380;SDS011;16364;52.490;13.326;2023-07-20T12:35:29;0.80;;;0.60;;
29380;SDS011;16364;52.490;13.326;2023-07-20T12:37:55;0.80;;;0.80;;
29380;SDS011;16364;52.490;13.326;2023-07-20T12:40:20;1.93;;;0.80;;
29380;SDS011;16364;52.490;13.326;2023-07-20T12:42:46;0.90;;;0.90;;
29380;SDS011;16364;52.490;13.326;2023-07-20T12:45:11;2.70;;;0.80;;
29380;SDS011;16364;52.490;13.326;2023-07-20T12:47:36;0.80;;;0.80;;
29380;SDS011;16364;52.490;13.326;2023-07-20T12:50:02;0.80;;;0.80;;
29380;SDS011;16364;52.490;13.326;2023-07-20T12:52:29;0.80;;;0.70;;
29380;SDS011;16364;52.490;13.326;2023-07-20T12:54:54;1.83;;;0.90;;
29380;SDS011;16364;52.490;13.326;2023-07-20T12:57:19;1.10;;;0.77;;
29380;SDS011;16364;52.490;13.326;2023-07-20T12:59:44;3.33;;;0.60;;
29380;SDS011;16364;52.490;13.326;2023-07-20T13:02:10;0.70;;;0.60;;
29380;SDS011;16364;52.490;13.326;2023-07-20T13:04:35;0.87;;;0.60;;
29380;SDS011;16364;52.490;13.326;2023-07-20T13:07:00;0.70;;;0.70;;
29380;SDS011;16364;52.490;13.326;2023-07-20T13:09:25;1.00;;;0.70;;
29380;SDS011;16364;52.490;13.326;2023-07-20T13:11:51;0.70;;;0.60;;
29380;SDS011;16364;52.490;13.326;2023-07-20T13:14:17;2.40;;;0.60;;
29380;SDS011;16364;52.490;13.326;2023-07-20T13:16:42;3.03;;;0.70;;
29380;SDS011;16364;52.490;13.326;2023-07-20T13:19:08;0.70;;;0.70;;
29380;SDS011;16364;52.490;13.326;2023-07-20T13:21:33;0.80;;;0.63;;
29380;SDS011;16364;52.490;13.326;2023-07-20T13:23:58;2.53;;;0.70;;
29380;SDS011;16364;52.490;13.326;2023-07-20T13:26:23;0.63;;;0.60;;
29380;SDS011;16364;52.490;13.326;2023-07-20T13:28:49;1.00;;;0.70;;
29380;SDS011;16364;52.490;13.326;2023-07-20T13:31:14;0.80;;;0.60;;
29380;SDS011;16364;52.490;13.326;2023-07-20T13:33:39;0.73;;;0.70;;
29380;SDS011;16364;52.490;13.326;2023-07-20T13:36:05;1.67;;;0.70;;
29380;SDS011;16364;52.490;13.326;2023-07-20T13:38:31;0.70;;;0.60;;
29380;SDS011;16364;52.490;13.326;2023-07-20T13:40:56;0.60;;;0.60;;
29380;SDS011;16364;52.490;13.326;2023-07-20T13:43:21;1.10;;;0.70;;
29380;SDS011;16364;52.490;13.326;2023-07-20T13:45:47;0.80;;;0.70;;
29380;SDS011;16364;52.490;13.326;2023-07-20T13:48:12;0.87;;;0.73;;
29380;SDS011;16364;52.490;13.326;2023-07-20T13:50:37;0.77;;;0.60;;
29380;SDS011;16364;52.490;13.326;2023-07-20T13:53:02;1.53;;;0.70;;
29380;SDS011;16364;52.490;13.326;2023-07-20T13:55:28;1.20;;;0.63;;
29380;SDS011;16364;52.490;13.326;2023-07-20T13:57:53;0.60;;;0.60;;
29380;SDS011;16364;52.490;13.326;2023-07-20T14:00:18;1.00;;;0.70;;
29380;SDS011;16364;52.490;13.326;2023-07-20T14:02:43;1.37;;;0.63;;
29380;SDS011;16364;52.490;13.326;2023-07-20T14:05:09;0.80;;;0.60;;
29380;SDS011;16364;52.490;13.326;2023-07-20T14:07:35;0.90;;;0.70;;
29380;SDS011;16364;52.490;13.326;2023-07-20T14:10:01;0.70;;;0.50;;
29380;SDS011;16364;52.490;13.326;2023-07-20T14:12:26;0.70;;;0.70;;
29380;SDS011;16364;52.490;13.326;2023-07-20T14:14:51;1.83;;;0.77;;
29380;SDS011;16364;52.490;13.326;2023-07-20T14:17:16;1.43;;;0.70;;
29380;SDS011;16364;52.490;13.326;2023-07-20T14:19:41;0.90;;;0.70;;
29380;SDS011;16364;52.490;13.326;2023-07-20T14:22:07;1.57;;;0.80;;
29380;SDS011;16364;52.490;13.326;2023-07-20T14:24:32;1.20;;;0.70;;
29380;SDS011;16364;52.490;13.326;2023-07-20T14:26:57;1.33;;;0.93;;
29380;SDS011;16364;52.490;13.326;2023-07-20T14:29:23;1.30;;;0.60;;
29380;SDS011;16364;52.490;13.326;2023-07-20T14:31:48;0.77;;;0.77;;
29380;SDS011;16364;52.490;13.326;2023-07-20T14:34:16;1.83;;;0.60;;
29380;SDS011;16364;52.490;13.326;2023-07-20T14:36:41;0.80;;;0.70;;
29380;SDS011;16364;52.490;13.326;2023-07-20T14:39:06;0.70;;;0.70;;
29380;SDS011;16364;52.490;13.326;2023-07-20T14:41:32;1.10;;;0.90;;
29380;SDS011;16364;52.490;13.326;2023-07-20T14:43:57;0.80;;;0.67;;